sensor_id;sensor_type;location;lat;lon;timestamp;pressure;altitude;pressure_sealevel;temperature;humidity
4123;BME280;2075;51.062;6.920;2023-05-18T00:01:20;93997.47;;;-144.48;94.49
4123;BME280;2075;51.062;6.920;2023-05-18T00:04:05;94050.28;;;-144.48;93.89
4123;BME280;2075;51.062;6.920;2023-05-18T00:06:52;94105.13;;;-144.48;92.85
4123;BME280;2075;51.062;6.920;2023-05-18T00:09:39;94058.41;;;-144.48;94.64
4123;BME280;2075;51.062;6.920;2023-05-18T00:12:26;93893.88;;;-144.48;96.24
4123;BME280;2075;51.062;6.920;2023-05-18T00:15:12;93576.97;;;-144.48;98.91
4123;BME280;2075;51.062;6.920;2023-05-18T00:17:57;93140.28;;;-144.48;100.00
4123;BME280;2075;51.062;6.920;2023-05-18T00:20:43;92185.84;;;-144.48;100.00
4123;BME280;2075;51.062;6.920;2023-05-18T00:23:29;92094.47;;;-144.48;100.00
4123;BME280;2075;51.062;6.920;2023-05-18T00:26:14;93109.81;;;-144.48;100.00
4123;BME280;2075;51.062;6.920;2023-05-18T00:29:02;92823.47;;;-144.48;100.00
4123;BME280;2075;51.062;6.920;2023-05-18T00:31:47;92165.53;;;-144.48;100.00
4123;BME280;2075;51.062;6.920;2023-05-18T00:34:33;91960.47;;;-144.48;100.00
4123;BME280;2075;51.062;6.920;2023-05-18T00:37:20;90913.00;;;-144.48;100.00
4123;BME280;2075;51.062;6.920;2023-05-18T00:40:07;88804.78;;;-144.48;100.00
4123;BME280;2075;51.062;6.920;2023-05-18T00:42:52;85230.47;;;-144.48;100.00
4123;BME280;2075;51.062;6.920;2023-05-18T00:45:39;83488.25;;;-144.48;100.00
4123;BME280;2075;51.062;6.920;2023-05-18T00:48:24;79791.97;;;-144.48;100.00
4123;BME280;2075;51.062;6.920;2023-05-18T00:51:10;79462.22;;;-144.48;100.00
4123;BME280;2075;51.062;6.920;2023-05-18T00:53:56;76831.34;;;-144.48;100.00
4123;BME280;2075;51.062;6.920;2023-05-18T00:56:42;71276.94;;;-144.48;100.00
4123;BME280;2075;51.062;6.920;2023-05-18T00:59:29;69192.84;;;-144.48;100.00
4123;BME280;2075;51.062;6.920;2023-05-18T01:02:17;72530.44;;;-144.48;100.00
4123;BME280;2075;51.062;6.920;2023-05-18T01:05:03;69709.19;;;-144.48;100.00
4123;BME280;2075;51.062;6.920;2023-05-18T01:07:49;74776.16;;;-144.48;100.00
4123;BME280;2075;51.062;6.920;2023-05-18T01:10:36;67128.13;;;-144.48;100.00
4123;BME280;2075;51.062;6.920;2023-05-18T01:13:30;62744.81;;;-144.48;100.00
4123;BME280;2075;51.062;6.920;2023-05-18T01:16:22;60941.53;;;-144.48;100.00
4123;BME280;2075;51.062;6.920;2023-05-18T01:19:26;61456.66;;;-144.48;100.00
4123;BME280;2075;51.062;6.920;2023-05-18T01:22:25;68418.44;;;-144.48;100.00
4123;BME280;2075;51.062;6.920;2023-05-18T01:25:20;64033.44;;;-144.48;100.00
4123;BME280;2075;51.062;6.920;2023-05-18T01:28:16;63002.50;;;-144.48;100.00
4123;BME280;2075;51.062;6.920;2023-05-18T01:31:02;58367.09;;;-144.48;100.00
4123;BME280;2075;51.062;6.920;2023-05-18T01:33:49;54509.13;;;-144.48;100.00
4123;BME280;2075;51.062;6.920;2023-05-18T01:36:35;50912.28;;;-144.48;100.00
4123;BME280;2075;51.062;6.920;2023-05-18T01:39:20;47319.28;;;-144.48;100.00
4123;BME280;2075;51.062;6.920;2023-05-18T01:42:08;45267.84;;;-144.48;100.00
4123;BME280;2075;51.062;6.920;2023-05-18T01:45:00;46293.41;;;-144.48;100.00
4123;BME280;2075;51.062;6.920;2023-05-18T01:47:48;50398.75;;;-144.48;100.00
4123;BME280;2075;51.062;6.920;2023-05-18T01:50:35;50142.03;;;-144.48;100.00
4123;BME280;2075;51.062;6.920;2023-05-18T01:53:28;48602.03;;;-144.48;100.00
4123;BME280;2075;51.062;6.920;2023-05-18T01:56:16;46549.84;;;-144.48;100.00
4123;BME280;2075;51.062;6.920;2023-05-18T01:59:03;45524.19;;;-144.48;100.00
4123;BME280;2075;51.062;6.920;2023-05-18T02:01:50;40656.66;;;-144.48;100.00
4123;BME280;2075;51.062;6.920;2023-05-18T02:04:36;38097.66;;;-144.48;100.00
4123;BME280;2075;51.062;6.920;2023-05-18T02:07:22;34773.81;;;-144.48;100.00
4123;BME280;2075;51.062;6.920;2023-05-18T02:10:08;31708.63;;;-144.48;100.00
4123;BME280;2075;51.062;6.920;2023-05-18T02:12:54;30432.28;;;-144.48;100.00
4123;BME280;2075;51.062;6.920;2023-05-18T02:15:39;31708.63;;;-144.48;100.00
4123;BME280;2075;51.062;6.920;2023-05-18T02:18:26;32474.66;;;-144.48;100.00
4123;BME280;2075;51.062;6.920;2023-05-18T02:21:11;31708.63;;;-144.48;100.00
4123;BME280;2075;51.062;6.920;2023-05-18T02:23:57;31198.03;;;-144.48;100.00
4123;BME280;2075;51.062;6.920;2023-05-18T02:26:43;31708.63;;;-144.48;100.00
4123;BME280;2075;51.062;6.920;2023-05-18T02:29:30;28391.13;;;-144.48;100.00
4123;BME280;2075;51.062;6.920;2023-05-18T02:32:15;25841.47;;;-144.48;100.00
4123;BME280;2075;51.062;6.920;2023-05-18T02:35:02;30177.06;;;-144.48;100.00
4123;BME280;2075;51.062;6.920;2023-05-18T02:37:48;32730.03;;;-144.48;100.00
4123;BME280;2075;51.062;6.920;2023-05-18T02:40:33;33240.88;;;-144.48;100.00
4123;BME280;2075;51.062;6.920;2023-05-18T02:43:18;29411.56;;;-144.48;100.00
4123;BME280;2075;51.062;6.920;2023-05-18T02:46:04;27371.03;;;-144.48;100.00
4123;BME280;2075;51.062;6.920;2023-05-18T02:48:50;23293.75;;;-144.48;100.00
4123;BME280;2075;51.062;6.920;2023-05-18T02:51:37;23803.16;;;-144.48;100.00
4123;BME280;2075;51.062;6.920;2023-05-18T02:54:22;24057.88;;;-144.48;100.00
4123;BME280;2075;51.062;6.920;2023-05-18T02:57:08;22529.81;;;-144.48;100.00
4123;BME280;2075;51.062;6.920;2023-05-18T03:00:02;21257.00;;;-144.48;100.00
4123;BME280;2075;51.062;6.920;2023-05-18T03:02:53;22529.81;;;-144.48;100.00
4123;BME280;2075;51.062;6.920;2023-05-18T03:05:40;21511.53;;;-144.48;100.00
4123;BME280;2075;51.062;6.920;2023-05-18T03:08:28;20748.00;;;-144.48;100.00
4123;BME280;2075;51.062;6.920;2023-05-18T03:11:15;19730.22;;;-144.48;100.00
4123;BME280;2075;51.062;6.920;2023-05-18T03:14:00;18458.47;;;-144.48;100.00
4123;BME280;2075;51.062;6.920;2023-05-18T03:16:45;16678.81;;;-144.48;100.00
4123;BME280;2075;51.062;6.920;2023-05-18T03:19:33;15408.25;;;-144.48;100.00
4123;BME280;2075;51.062;6.920;2023-05-18T03:22:18;14392.13;;;-144.48;100.00
4123;BME280;2075;51.062;6.920;2023-05-18T03:25:06;13122.41;;;-144.48;100.00
4123;BME280;2075;51.062;6.920;2023-05-18T03:27:52;12107.00;;;-144.48;100.00
4123;BME280;2075;51.062;6.920;2023-05-18T03:30:37;11091.88;;;-144.48;100.00
4123;BME280;2075;51.062;6.920;2023-05-18T03:33:23;7794.94;;;-144.48;100.00
4123;BME280;2075;51.062;6.920;2023-05-18T03:36:09;6021.03;;;-144.48;100.00
4123;BME280;2075;51.062;6.920;2023-05-18T03:38:56;6274.38;;;-144.48;100.00
4123;BME280;2075;51.062;6.920;2023-05-18T03:41:43;6781.16;;;-144.48;100.00
4123;BME280;2075;51.062;6.920;2023-05-18T03:44:29;7034.56;;;-144.48;100.00
4123;BME280;2075;51.062;6.920;2023-05-18T03:47:14;8301.94;;;-144.48;100.00
4123;BME280;2075;51.062;6.920;2023-05-18T03:49:59;9062.59;;;-144.48;100.00
4123;BME280;2075;51.062;6.920;2023-05-18T03:52:45;10838.16;;;-144.48;100.00
4123;BME280;2075;51.062;6.920;2023-05-18T03:55:30;12868.53;;;-144.48;100.00
4123;BME280;2075;51.062;6.920;2023-05-18T03:58:17;14900.13;;;-144.48;100.00
4123;BME280;2075;51.062;6.920;2023-05-18T04:01:04;18458.47;;;-144.48;100.00
4123;BME280;2075;51.062;6.920;2023-05-18T04:03:49;22529.81;;;-144.48;100.00
4123;BME280;2075;51.062;6.920;2023-05-18T04:06:39;28646.22;;;-144.48;100.00
4123;BME280;2075;51.062;6.920;2023-05-18T04:09:26;32730.03;;;-144.48;100.00
4123;BME280;2075;51.062;6.920;2023-05-18T04:12:12;36818.88;;;-144.48;100.00
4123;BME280;2075;51.062;6.920;2023-05-18T04:14:59;44498.88;;;-144.48;100.00
4123;BME280;2075;51.062;6.920;2023-05-18T04:17:44;59654.09;;;-144.48;100.00
4123;BME280;2075;51.062;6.920;2023-05-18T04:20:29;63517.94;;;-144.48;100.00
4123;BME280;2075;51.062;6.920;2023-05-18T04:23:15;67128.13;;;-144.48;100.00
4123;BME280;2075;51.062;6.920;2023-05-18T04:26:00;78181.91;;;-144.48;100.00
4123;BME280;2075;51.062;6.920;2023-05-18T04:28:46;79162.81;;;-144.48;100.00
4123;BME280;2075;51.062;6.920;2023-05-18T04:31:34;85329.75;;;-144.48;100.00
4123;BME280;2075;51.062;6.920;2023-05-18T04:34:19;88030.00;;;-144.48;100.00
4123;BME280;2075;51.062;6.920;2023-05-18T04:37:06;88121.25;;;-144.48;98.90
4123;BME280;2075;51.062;6.920;2023-05-18T04:39:53;89287.59;;;-144.48;98.60
4123;BME280;2075;51.062;6.920;2023-05-18T04:42:40;91534.13;;;-144.48;96.18
4123;BME280;2075;51.062;6.920;2023-05-18T04:45:29;93371.81;;;-144.48;93.89
4123;BME280;2075;51.062;6.920;2023-05-18T04:48:16;93509.94;;;-144.48;92.48
4123;BME280;2075;51.062;6.920;2023-05-18T04:51:03;93891.84;;;-144.48;89.83
4123;BME280;2075;51.062;6.920;2023-05-18T04:53:49;93962.94;;;-144.48;88.26
4123;BME280;2075;51.062;6.920;2023-05-18T04:56:34;94029.97;;;-144.48;86.30
4123;BME280;2075;51.062;6.920;2023-05-18T04:59:19;94103.09;;;-144.48;84.51
4123;BME280;2075;51.062;6.920;2023-05-18T05:02:11;94162.03;;;-144.48;82.28
4123;BME280;2075;51.062;6.920;2023-05-18T05:04:58;94200.63;;;-144.48;74.44
4123;BME280;2075;51.062;6.920;2023-05-18T05:07:43;93826.81;;;-144.48;53.94
4123;BME280;2075;51.062;6.920;2023-05-18T05:10:29;93369.78;;;-144.48;43.60
4123;BME280;2075;51.062;6.920;2023-05-18T05:13:14;93168.72;;;-144.48;38.07
4123;BME280;2075;51.062;6.920;2023-05-18T05:15:59;92598.03;;;-144.48;33.39
4123;BME280;2075;51.062;6.920;2023-05-18T05:18:45;92222.38;;;-144.48;30.51
4123;BME280;2075;51.062;6.920;2023-05-18T05:21:31;91844.75;;;-144.48;27.86
4123;BME280;2075;51.062;6.920;2023-05-18T05:24:18;91720.91;;;-144.48;27.08
4123;BME280;2075;51.062;6.920;2023-05-18T05:27:04;91572.69;;;-144.48;26.26
4123;BME280;2075;51.062;6.920;2023-05-18T05:29:49;91479.31;;;-144.48;25.81
4123;BME280;2075;51.062;6.920;2023-05-18T05:32:34;91966.56;;;-144.48;26.65
4123;BME280;2075;51.062;6.920;2023-05-18T05:35:20;92070.09;;;-144.48;27.31
4123;BME280;2075;51.062;6.920;2023-05-18T05:38:07;92118.84;;;-144.48;28.31
4123;BME280;2075;51.062;6.920;2023-05-18T05:40:52;91448.88;;;-144.48;25.83
4123;BME280;2075;51.062;6.920;2023-05-18T05:43:38;91351.44;;;-144.48;25.44
4123;BME280;2075;51.062;6.920;2023-05-18T05:46:23;91284.44;;;-144.48;24.54
4123;BME280;2075;51.062;6.920;2023-05-18T05:49:09;90829.78;;;-144.48;24.02
4123;BME280;2075;51.062;6.920;2023-05-18T05:51:55;90687.69;;;-144.48;23.63
4123;BME280;2075;51.062;6.920;2023-05-18T05:54:42;90505.03;;;-144.48;23.26
4123;BME280;2075;51.062;6.920;2023-05-18T05:57:28;90444.16;;;-144.48;22.52
4123;BME280;2075;51.062;6.920;2023-05-18T06:00:15;90695.81;;;-144.48;22.84
4123;BME280;2075;51.062;6.920;2023-05-18T06:03:09;89985.53;;;-144.48;22.52
4123;BME280;2075;51.062;6.920;2023-05-18T06:05:58;90158.03;;;-144.48;21.78
4123;BME280;2075;51.062;6.920;2023-05-18T06:08:45;90111.34;;;-144.48;21.84
4123;BME280;2075;51.062;6.920;2023-05-18T06:11:32;89845.53;;;-144.48;21.47
4123;BME280;2075;51.062;6.920;2023-05-18T06:14:18;89768.44;;;-144.48;21.34
4123;BME280;2075;51.062;6.920;2023-05-18T06:17:04;89514.81;;;-144.48;21.21
4123;BME280;2075;51.062;6.920;2023-05-18T06:19:50;89234.84;;;-144.48;20.78
4123;BME280;2075;51.062;6.920;2023-05-18T06:22:35;90214.84;;;-144.48;21.51
4123;BME280;2075;51.062;6.920;2023-05-18T06:25:41;90046.41;;;-144.48;21.52
4123;BME280;2075;51.062;6.920;2023-05-18T06:28:51;90318.34;;;-144.48;21.97
4123;BME280;2075;51.062;6.920;2023-05-18T06:31:49;90488.81;;;-144.48;21.74
4123;BME280;2075;51.062;6.920;2023-05-18T06:34:39;91140.31;;;-144.48;23.42
4123;BME280;2075;51.062;6.920;2023-05-18T06:37:26;90839.94;;;-144.48;22.76
4123;BME280;2075;51.062;6.920;2023-05-18T06:40:11;89804.97;;;-144.48;21.52
4123;BME280;2075;51.062;6.920;2023-05-18T06:43:00;89912.50;;;-144.48;21.10
4123;BME280;2075;51.062;6.920;2023-05-18T06:46:02;90348.78;;;-144.48;21.96
4123;BME280;2075;51.062;6.920;2023-05-18T06:48:52;90468.53;;;-144.48;22.30
4123;BME280;2075;51.062;6.920;2023-05-18T06:51:37;90805.41;;;-144.48;22.67
4123;BME280;2075;51.062;6.920;2023-05-18T06:54:23;90338.63;;;-144.48;22.10
4123;BME280;2075;51.062;6.920;2023-05-18T06:57:08;91101.75;;;-144.48;23.57
4123;BME280;2075;51.062;6.920;2023-05-18T06:59:54;90135.72;;;-144.48;21.97
4123;BME280;2075;51.062;6.920;2023-05-18T07:02:41;89569.59;;;-144.48;20.73
4123;BME280;2075;51.062;6.920;2023-05-18T07:05:31;90294.00;;;-144.48;21.73
4123;BME280;2075;51.062;6.920;2023-05-18T07:08:17;89510.75;;;-144.48;21.31
4123;BME280;2075;51.062;6.920;2023-05-18T07:11:02;89849.59;;;-144.48;21.14
4123;BME280;2075;51.062;6.920;2023-05-18T07:13:48;89486.41;;;-144.48;20.57
4123;BME280;2075;51.062;6.920;2023-05-18T07:16:34;89602.06;;;-144.48;20.57
4123;BME280;2075;51.062;6.920;2023-05-18T07:19:20;89959.16;;;-144.48;21.39
4123;BME280;2075;51.062;6.920;2023-05-18T07:22:06;90598.41;;;-144.48;22.13
4123;BME280;2075;51.062;6.920;2023-05-18T07:24:51;90561.88;;;-144.48;22.33
4123;BME280;2075;51.062;6.920;2023-05-18T07:27:36;90202.66;;;-144.48;21.26
4123;BME280;2075;51.062;6.920;2023-05-18T07:30:23;90066.72;;;-144.48;21.17
4123;BME280;2075;51.062;6.920;2023-05-18T07:33:09;90182.38;;;-144.48;21.66
4123;BME280;2075;51.062;6.920;2023-05-18T07:35:56;90423.88;;;-144.48;21.88
4123;BME280;2075;51.062;6.920;2023-05-18T07:38:41;90695.81;;;-144.48;22.07
4123;BME280;2075;51.062;6.920;2023-05-18T07:41:26;89900.31;;;-144.48;20.94
4123;BME280;2075;51.062;6.920;2023-05-18T07:44:14;90509.09;;;-144.48;21.93
4123;BME280;2075;51.062;6.920;2023-05-18T07:47:00;90320.38;;;-144.48;21.42
4123;BME280;2075;51.062;6.920;2023-05-18T07:49:45;90809.47;;;-144.48;22.26
4123;BME280;2075;51.062;6.920;2023-05-18T07:52:32;89742.06;;;-144.48;20.74
4123;BME280;2075;51.062;6.920;2023-05-18T07:55:17;90537.53;;;-144.48;21.84
4123;BME280;2075;51.062;6.920;2023-05-18T07:58:04;90468.53;;;-144.48;21.33
4123;BME280;2075;51.062;6.920;2023-05-18T08:00:50;90377.19;;;-144.48;21.73
4123;BME280;2075;51.062;6.920;2023-05-18T08:03:35;90367.03;;;-144.48;21.43
4123;BME280;2075;51.062;6.920;2023-05-18T08:06:20;90044.38;;;-144.48;20.81
4123;BME280;2075;51.062;6.920;2023-05-18T08:09:08;90632.91;;;-144.48;21.92
4123;BME280;2075;51.062;6.920;2023-05-18T08:11:53;91012.44;;;-144.48;22.66
4123;BME280;2075;51.062;6.920;2023-05-18T08:14:39;90371.09;;;-144.48;21.69
4123;BME280;2075;51.062;6.920;2023-05-18T08:17:25;89742.06;;;-144.48;20.38
4123;BME280;2075;51.062;6.920;2023-05-18T08:20:11;89628.44;;;-144.48;20.18
4123;BME280;2075;51.062;6.920;2023-05-18T08:22:57;89959.16;;;-144.48;20.47
4123;BME280;2075;51.062;6.920;2023-05-18T08:25:43;90963.75;;;-144.48;22.16
4123;BME280;2075;51.062;6.920;2023-05-18T08:28:29;90817.59;;;-144.48;21.76
4123;BME280;2075;51.062;6.920;2023-05-18T08:31:14;90837.91;;;-144.48;22.15
4123;BME280;2075;51.062;6.920;2023-05-18T08:34:00;89740.03;;;-144.48;20.68
4123;BME280;2075;51.062;6.920;2023-05-18T08:36:45;90411.69;;;-144.48;20.90
4123;BME280;2075;51.062;6.920;2023-05-18T08:39:31;90519.25;;;-144.48;21.38
4123;BME280;2075;51.062;6.920;2023-05-18T08:42:21;90180.34;;;-144.48;20.78
4123;BME280;2075;51.062;6.920;2023-05-18T08:45:10;90024.09;;;-144.48;20.88
4123;BME280;2075;51.062;6.920;2023-05-18T08:47:59;90200.66;;;-144.48;21.00
4123;BME280;2075;51.062;6.920;2023-05-18T08:50:45;89918.59;;;-144.48;20.71
4123;BME280;2075;51.062;6.920;2023-05-18T08:53:32;90600.44;;;-144.48;21.55
4123;BME280;2075;51.062;6.920;2023-05-18T08:56:21;91574.75;;;-144.48;23.49
4123;BME280;2075;51.062;6.920;2023-05-18T08:59:09;91111.91;;;-144.48;22.47
4123;BME280;2075;51.062;6.920;2023-05-18T09:01:55;91724.97;;;-144.48;23.92
4123;BME280;2075;51.062;6.920;2023-05-18T09:04:41;91899.56;;;-144.48;24.72
4123;BME280;2075;51.062;6.920;2023-05-18T09:07:28;92665.06;;;-144.48;27.44
4123;BME280;2075;51.062;6.920;2023-05-18T09:10:13;93042.78;;;-144.48;29.37
4123;BME280;2075;51.062;6.920;2023-05-18T09:12:59;93184.97;;;-144.48;30.40
4123;BME280;2075;51.062;6.920;2023-05-18T09:15:47;93128.09;;;-144.48;31.32
4123;BME280;2075;51.062;6.920;2023-05-18T09:18:34;93172.78;;;-144.48;30.95
4123;BME280;2075;51.062;6.920;2023-05-18T09:21:20;93197.16;;;-144.48;30.61
4123;BME280;2075;51.062;6.920;2023-05-18T09:24:05;93158.56;;;-144.48;30.84
4123;BME280;2075;51.062;6.920;2023-05-18T09:26:51;93290.56;;;-144.48;32.03
4123;BME280;2075;51.062;6.920;2023-05-18T09:29:50;93207.31;;;-144.48;31.73
4123;BME280;2075;51.062;6.920;2023-05-18T09:32:37;93197.16;;;-144.48;31.51
4123;BME280;2075;51.062;6.920;2023-05-18T09:35:23;93339.31;;;-144.48;32.29
4123;BME280;2075;51.062;6.920;2023-05-18T09:38:09;93221.53;;;-144.48;32.29
4123;BME280;2075;51.062;6.920;2023-05-18T09:40:56;93314.94;;;-144.48;32.40
4123;BME280;2075;51.062;6.920;2023-05-18T09:43:44;93256.06;;;-144.48;32.94
4123;BME280;2075;51.062;6.920;2023-05-18T09:46:30;93339.31;;;-144.48;33.15
4123;BME280;2075;51.062;6.920;2023-05-18T09:49:20;93363.69;;;-144.48;33.27
4123;BME280;2075;51.062;6.920;2023-05-18T09:52:06;93386.03;;;-144.48;33.48
4123;BME280;2075;51.062;6.920;2023-05-18T09:54:57;93481.50;;;-144.48;34.26
4123;BME280;2075;51.062;6.920;2023-05-18T09:57:44;93414.47;;;-144.48;32.92
4123;BME280;2075;51.062;6.920;2023-05-18T10:00:30;93390.09;;;-144.48;33.23
4123;BME280;2075;51.062;6.920;2023-05-18T10:03:17;93398.22;;;-144.48;33.68
4123;BME280;2075;51.062;6.920;2023-05-18T10:06:09;93388.06;;;-144.48;34.13
4123;BME280;2075;51.062;6.920;2023-05-18T10:08:56;93371.81;;;-144.48;34.03
4123;BME280;2075;51.062;6.920;2023-05-18T10:11:42;93367.75;;;-144.48;33.54
4123;BME280;2075;51.062;6.920;2023-05-18T10:14:31;93310.88;;;-144.48;33.10
4123;BME280;2075;51.062;6.920;2023-05-18T10:17:20;93292.59;;;-144.48;32.65
4123;BME280;2075;51.062;6.920;2023-05-18T10:20:09;93195.13;;;-144.48;32.69
4123;BME280;2075;51.062;6.920;2023-05-18T10:22:57;93599.31;;;-144.48;32.02
4123;BME280;2075;51.062;6.920;2023-05-18T10:25:45;93262.16;;;-144.48;31.95
4123;BME280;2075;51.062;6.920;2023-05-18T10:28:34;93270.25;;;-144.48;32.30
4123;BME280;2075;51.062;6.920;2023-05-18T10:31:22;93327.13;;;-144.48;33.15
4123;BME280;2075;51.062;6.920;2023-05-18T10:34:09;93197.16;;;-144.48;32.31
4123;BME280;2075;51.062;6.920;2023-05-18T10:36:55;93178.88;;;-144.48;32.39
4123;BME280;2075;51.062;6.920;2023-05-18T10:39:43;93119.97;;;-144.48;31.69
4123;BME280;2075;51.062;6.920;2023-05-18T10:42:30;93063.09;;;-144.48;32.17
4123;BME280;2075;51.062;6.920;2023-05-18T10:45:15;93184.97;;;-144.48;32.10
4123;BME280;2075;51.062;6.920;2023-05-18T10:48:03;93201.22;;;-144.48;32.48
4123;BME280;2075;51.062;6.920;2023-05-18T10:50:52;93249.97;;;-144.48;32.51
4123;BME280;2075;51.062;6.920;2023-05-18T10:53:38;93152.47;;;-144.48;32.81
4123;BME280;2075;51.062;6.920;2023-05-18T10:56:28;93128.09;;;-144.48;32.42
4123;BME280;2075;51.062;6.920;2023-05-18T10:59:14;93063.09;;;-144.48;32.47
4123;BME280;2075;51.062;6.920;2023-05-18T11:02:02;92990.00;;;-144.48;31.87
4123;BME280;2075;51.062;6.920;2023-05-18T11:04:47;93030.59;;;-144.48;31.63
4123;BME280;2075;51.062;6.920;2023-05-18T11:07:33;93032.63;;;-144.48;32.26
4123;BME280;2075;51.062;6.920;2023-05-18T11:10:19;93095.59;;;-144.48;32.64
4123;BME280;2075;51.062;6.920;2023-05-18T11:13:06;93174.81;;;-144.48;33.07
4123;BME280;2075;51.062;6.920;2023-05-18T11:16:02;93203.25;;;-144.48;33.76
4123;BME280;2075;51.062;6.920;2023-05-18T11:18:50;93300.72;;;-144.48;35.03
4123;BME280;2075;51.062;6.920;2023-05-18T11:21:52;93211.38;;;-144.48;35.29
4123;BME280;2075;51.062;6.920;2023-05-18T11:24:39;93136.22;;;-144.48;34.73
4123;BME280;2075;51.062;6.920;2023-05-18T11:27:27;93091.53;;;-144.48;34.47
4123;BME280;2075;51.062;6.920;2023-05-18T11:30:27;93002.19;;;-144.48;33.53
4123;BME280;2075;51.062;6.920;2023-05-18T11:33:14;92900.63;;;-144.48;32.37
4123;BME280;2075;51.062;6.920;2023-05-18T11:36:02;92939.22;;;-144.48;32.43
4123;BME280;2075;51.062;6.920;2023-05-18T11:38:52;93071.22;;;-144.48;33.42
4123;BME280;2075;51.062;6.920;2023-05-18T11:41:39;93075.28;;;-144.48;34.43
4123;BME280;2075;51.062;6.920;2023-05-18T11:44:26;93115.91;;;-144.48;33.89
4123;BME280;2075;51.062;6.920;2023-05-18T11:47:13;93087.47;;;-144.48;34.93
4123;BME280;2075;51.062;6.920;2023-05-18T11:49:59;93286.50;;;-144.48;35.29
4123;BME280;2075;51.062;6.920;2023-05-18T11:52:45;93119.97;;;-144.48;34.48
4123;BME280;2075;51.062;6.920;2023-05-18T11:55:36;93050.91;;;-144.48;33.99
4123;BME280;2075;51.062;6.920;2023-05-18T11:58:23;93004.22;;;-144.48;34.32
4123;BME280;2075;51.062;6.920;2023-05-18T12:01:08;93059.03;;;-144.48;33.75
4123;BME280;2075;51.062;6.920;2023-05-18T12:03:56;93069.19;;;-144.48;33.82
4123;BME280;2075;51.062;6.920;2023-05-18T12:06:42;93042.78;;;-144.48;34.42
4123;BME280;2075;51.062;6.920;2023-05-18T12:09:29;93018.41;;;-144.48;34.35
4123;BME280;2075;51.062;6.920;2023-05-18T12:12:16;93124.03;;;-144.48;34.37
4123;BME280;2075;51.062;6.920;2023-05-18T12:15:04;93071.22;;;-144.48;34.40
4123;BME280;2075;51.062;6.920;2023-05-18T12:17:50;93073.25;;;-144.48;34.34
4123;BME280;2075;51.062;6.920;2023-05-18T12:20:39;93111.84;;;-144.48;34.53
4123;BME280;2075;51.062;6.920;2023-05-18T12:23:34;92987.97;;;-144.48;34.97
4123;BME280;2075;51.062;6.920;2023-05-18T12:26:20;93063.09;;;-144.48;34.18
4123;BME280;2075;51.062;6.920;2023-05-18T12:29:08;92994.06;;;-144.48;33.54
4123;BME280;2075;51.062;6.920;2023-05-18T12:31:55;92969.69;;;-144.48;33.06
4123;BME280;2075;51.062;6.920;2023-05-18T12:34:43;92799.09;;;-144.48;32.80
4123;BME280;2075;51.062;6.920;2023-05-18T12:37:30;92868.13;;;-144.48;32.75
4123;BME280;2075;51.062;6.920;2023-05-18T12:40:16;92973.75;;;-144.48;33.23
4123;BME280;2075;51.062;6.920;2023-05-18T12:43:02;92673.19;;;-144.48;34.47
4123;BME280;2075;51.062;6.920;2023-05-18T12:45:47;93018.41;;;-144.48;34.47
4123;BME280;2075;51.062;6.920;2023-05-18T12:48:36;93030.59;;;-144.48;34.74
4123;BME280;2075;51.062;6.920;2023-05-18T12:51:22;93107.78;;;-144.48;35.52
4123;BME280;2075;51.062;6.920;2023-05-18T12:54:09;93146.38;;;-144.48;35.17
4123;BME280;2075;51.062;6.920;2023-05-18T12:56:55;93105.75;;;-144.48;34.92
4123;BME280;2075;51.062;6.920;2023-05-18T12:59:46;92920.94;;;-144.48;34.15
4123;BME280;2075;51.062;6.920;2023-05-18T13:02:35;93022.47;;;-144.48;33.87
4123;BME280;2075;51.062;6.920;2023-05-18T13:05:23;93061.06;;;-144.48;34.91
4123;BME280;2075;51.062;6.920;2023-05-18T13:08:13;93075.28;;;-144.48;34.82
4123;BME280;2075;51.062;6.920;2023-05-18T13:11:01;93052.94;;;-144.48;34.55
4123;BME280;2075;51.062;6.920;2023-05-18T13:13:57;93059.03;;;-144.48;34.43
4123;BME280;2075;51.062;6.920;2023-05-18T13:16:44;93172.78;;;-144.48;35.44
4123;BME280;2075;51.062;6.920;2023-05-18T13:19:30;93144.34;;;-144.48;36.06
4123;BME280;2075;51.062;6.920;2023-05-18T13:22:19;93099.66;;;-144.48;35.68
4123;BME280;2075;51.062;6.920;2023-05-18T13:25:06;93038.72;;;-144.48;35.50
4123;BME280;2075;51.062;6.920;2023-05-18T13:27:53;93042.78;;;-144.48;34.24
4123;BME280;2075;51.062;6.920;2023-05-18T13:30:39;92975.78;;;-144.48;34.12
4123;BME280;2075;51.062;6.920;2023-05-18T13:33:25;92965.63;;;-144.48;34.09
4123;BME280;2075;51.062;6.920;2023-05-18T13:36:11;92853.94;;;-144.48;33.80
4123;BME280;2075;51.062;6.920;2023-05-18T13:38:56;92943.28;;;-144.48;34.55
4123;BME280;2075;51.062;6.920;2023-05-18T13:41:42;93042.78;;;-144.48;35.10
4123;BME280;2075;51.062;6.920;2023-05-18T13:44:29;93050.91;;;-144.48;35.56
4123;BME280;2075;51.062;6.920;2023-05-18T13:47:14;93054.97;;;-144.48;35.08
4123;BME280;2075;51.062;6.920;2023-05-18T13:50:00;93014.38;;;-144.48;34.42
4123;BME280;2075;51.062;6.920;2023-05-18T13:52:45;92975.78;;;-144.48;34.85
4123;BME280;2075;51.062;6.920;2023-05-18T13:55:31;92983.91;;;-144.48;34.16
4123;BME280;2075;51.062;6.920;2023-05-18T13:58:17;93034.66;;;-144.48;34.36
4123;BME280;2075;51.062;6.920;2023-05-18T14:01:04;92683.34;;;-144.48;34.53
4123;BME280;2075;51.062;6.920;2023-05-18T14:03:51;92937.19;;;-144.48;34.68
4123;BME280;2075;51.062;6.920;2023-05-18T14:06:36;93022.47;;;-144.48;34.66
4123;BME280;2075;51.062;6.920;2023-05-18T14:09:21;93006.25;;;-144.48;34.95
4123;BME280;2075;51.062;6.920;2023-05-18T14:12:08;93042.78;;;-144.48;35.09
4123;BME280;2075;51.062;6.920;2023-05-18T14:14:55;93038.72;;;-144.48;35.34
4123;BME280;2075;51.062;6.920;2023-05-18T14:17:42;92985.94;;;-144.48;34.61
4123;BME280;2075;51.062;6.920;2023-05-18T14:20:28;92977.81;;;-144.48;34.12
4123;BME280;2075;51.062;6.920;2023-05-18T14:23:14;93040.75;;;-144.48;34.23
4123;BME280;2075;51.062;6.920;2023-05-18T14:25:59;92994.06;;;-144.48;34.32
4123;BME280;2075;51.062;6.920;2023-05-18T14:28:44;92967.66;;;-144.48;34.72
4123;BME280;2075;51.062;6.920;2023-05-18T14:31:30;92998.13;;;-144.48;34.99
4123;BME280;2075;51.062;6.920;2023-05-18T14:34:17;92943.28;;;-144.48;34.73
4123;BME280;2075;51.062;6.920;2023-05-18T14:37:03;92990.00;;;-144.48;35.02
4123;BME280;2075;51.062;6.920;2023-05-18T14:39:48;92975.78;;;-144.48;35.27
4123;BME280;2075;51.062;6.920;2023-05-18T14:42:34;92994.06;;;-144.48;35.41